createdAt,value
2018-12-03T00:00:04.669Z,967.06
2018-12-03T00:01:04.597Z,967.08
2018-12-03T00:02:04.514Z,967.08
2018-12-03T00:03:04.444Z,967.08
2018-12-03T00:04:04.354Z,967.06
2018-12-03T00:05:04.283Z,967.04
2018-12-03T00:06:04.198Z,967.08
2018-12-03T00:07:04.124Z,967.11
2018-12-03T00:08:04.043Z,967.09
2018-12-03T00:09:03.970Z,967.09
2018-12-03T00:10:03.882Z,967.09
2018-12-03T00:11:03.816Z,967.06
2018-12-03T00:12:03.728Z,967.16
2018-12-03T00:13:03.656Z,967.15
2018-12-03T00:14:03.571Z,967.16
2018-12-03T00:15:03.505Z,967.08
2018-12-03T00:16:03.412Z,967.13
2018-12-03T00:17:04.341Z,967.17
2018-12-03T00:18:03.255Z,967.18
2018-12-03T00:19:03.189Z,967.17
2018-12-03T00:20:03.099Z,967.14
2018-12-03T00:21:03.030Z,967.10
2018-12-03T00:22:02.949Z,967.07
2018-12-03T00:23:02.874Z,967.04
2018-12-03T00:24:02.787Z,967.01
2018-12-03T00:25:02.718Z,966.99
2018-12-03T00:26:02.630Z,966.97
2018-12-03T00:27:02.560Z,966.95
2018-12-03T00:28:02.474Z,967.00
2018-12-03T00:29:02.401Z,966.98
2018-12-03T00:30:02.323Z,966.98
2018-12-03T00:31:02.248Z,966.98
2018-12-03T00:32:02.167Z,966.97
2018-12-03T00:33:02.089Z,966.95
2018-12-03T00:34:02.008Z,967.00
2018-12-03T00:35:01.934Z,966.98
2018-12-03T00:36:01.851Z,966.95
2018-12-03T00:37:01.776Z,966.95
2018-12-03T00:38:01.694Z,966.99
2018-12-03T00:39:01.619Z,967.01
2018-12-03T00:40:01.539Z,966.98
2018-12-03T00:41:01.480Z,966.95
2018-12-03T00:42:01.378Z,966.94
2018-12-03T00:43:01.308Z,966.94
2018-12-03T00:44:01.233Z,966.91
2018-12-03T00:45:01.156Z,966.90
2018-12-03T00:46:01.066Z,966.90
2018-12-03T00:47:01.006Z,966.91
2018-12-03T00:48:00.911Z,966.90
2018-12-03T00:49:00.842Z,966.92
2018-12-03T00:50:00.749Z,966.90
2018-12-03T00:51:00.685Z,966.90
2018-12-03T00:52:00.597Z,966.91
2018-12-03T00:53:00.524Z,966.87
2018-12-03T00:54:00.437Z,966.87
2018-12-03T00:55:00.366Z,966.87
2018-12-03T00:56:00.290Z,966.79
2018-12-03T00:57:00.211Z,966.81
2018-12-03T00:58:00.126Z,966.79
2018-12-03T00:59:01.062Z,966.82
2018-12-03T00:59:59.972Z,966.79
2018-12-03T01:00:59.899Z,966.79
2018-12-03T01:01:59.811Z,966.81
2018-12-03T01:02:59.747Z,966.79
2018-12-03T01:03:59.655Z,966.80
2018-12-03T01:04:59.586Z,966.78
2018-12-03T01:05:59.502Z,966.80
2018-12-03T01:06:59.434Z,966.76
2018-12-03T01:07:59.344Z,966.82
2018-12-03T01:08:59.274Z,966.87
2018-12-03T01:09:59.187Z,966.85
2018-12-03T01:10:59.121Z,966.88
2018-12-03T01:11:59.032Z,966.81
2018-12-03T01:12:58.962Z,966.80
2018-12-03T01:13:58.874Z,966.78
2018-12-03T01:14:58.810Z,966.78
2018-12-03T01:15:58.723Z,966.77
2018-12-03T01:16:58.648Z,966.73
2018-12-03T01:17:58.564Z,966.72
2018-12-03T01:18:58.491Z,966.69
2018-12-03T01:19:59.087Z,966.68
2018-12-03T01:20:58.340Z,966.69
2018-12-03T01:21:58.261Z,966.66
2018-12-03T01:22:58.178Z,966.69
2018-12-03T01:23:58.094Z,966.68
2018-12-03T01:24:58.026Z,966.61
2018-12-03T01:25:57.937Z,966.64
2018-12-03T01:26:57.869Z,966.67
2018-12-03T01:27:57.783Z,966.69
2018-12-03T01:28:57.708Z,966.71
2018-12-03T01:29:57.626Z,966.74
2018-12-03T01:30:57.552Z,966.73
2018-12-03T01:31:57.468Z,966.74
2018-12-03T01:32:57.397Z,966.71
2018-12-03T01:33:57.319Z,966.71
2018-12-03T01:34:57.243Z,966.66
2018-12-03T01:35:57.154Z,966.66
2018-12-03T01:36:57.085Z,966.66
2018-12-03T01:37:57.002Z,966.70
2018-12-03T01:38:56.930Z,966.61
2018-12-03T01:39:56.837Z,966.61
2018-12-03T01:40:56.782Z,966.53
2018-12-03T01:41:56.688Z,966.50
2018-12-03T01:42:56.617Z,966.60
2018-12-03T01:43:56.530Z,966.63
2018-12-03T01:44:56.457Z,966.60
2018-12-03T01:45:56.374Z,966.57
2018-12-03T01:46:56.298Z,966.65
2018-12-03T01:47:56.219Z,966.50
2018-12-03T01:48:56.145Z,966.57
2018-12-03T01:49:56.071Z,966.56
2018-12-03T01:50:55.989Z,966.52
2018-12-03T01:51:55.908Z,966.61
2018-12-03T01:52:55.826Z,966.58
2018-12-03T01:53:55.753Z,966.54
2018-12-03T01:54:55.671Z,966.55
2018-12-03T01:55:55.602Z,966.66
2018-12-03T01:56:55.516Z,966.57
2018-12-03T01:57:55.443Z,966.61
2018-12-03T01:58:55.356Z,966.64
2018-12-03T01:59:55.285Z,966.67
2018-12-03T02:00:55.199Z,966.70
2018-12-03T02:01:55.132Z,966.67
2018-12-03T02:02:55.046Z,966.64
2018-12-03T02:03:54.973Z,966.64
2018-12-03T02:04:54.885Z,966.64
2018-12-03T02:05:54.816Z,966.64
2018-12-03T02:06:54.730Z,966.70
2018-12-03T02:07:54.661Z,966.64
2018-12-03T02:08:54.573Z,966.71
2018-12-03T02:09:54.512Z,966.71
2018-12-03T02:10:54.416Z,966.74
2018-12-03T02:11:54.348Z,966.69
2018-12-03T02:12:54.259Z,966.77
2018-12-03T02:13:54.191Z,966.78
2018-12-03T02:14:54.104Z,966.73
2018-12-03T02:15:54.033Z,966.70
2018-12-03T02:16:53.946Z,966.67
2018-12-03T02:17:54.877Z,966.65
2018-12-03T02:18:53.792Z,966.66
2018-12-03T02:19:53.724Z,966.64
2018-12-03T02:20:53.654Z,966.58
2018-12-03T02:21:53.565Z,966.63
2018-12-03T02:22:53.478Z,966.65
2018-12-03T02:23:53.408Z,966.66
2018-12-03T02:24:53.320Z,966.65
2018-12-03T02:25:53.254Z,966.65
2018-12-03T02:26:53.165Z,966.61
2018-12-03T02:27:53.096Z,966.65
2018-12-03T02:28:53.009Z,966.67
2018-12-03T02:29:52.939Z,966.70
2018-12-03T02:30:52.853Z,966.63
2018-12-03T02:31:52.789Z,966.61
2018-12-03T02:32:52.697Z,966.65
2018-12-03T02:33:52.618Z,966.65
2018-12-03T02:34:52.540Z,966.60
2018-12-03T02:35:52.468Z,966.56
2018-12-03T02:36:52.387Z,966.63
2018-12-03T02:37:52.313Z,966.57
2018-12-03T02:38:52.228Z,966.56
2018-12-03T02:39:52.160Z,966.51
2018-12-03T02:40:52.074Z,966.57
2018-12-03T02:41:52.998Z,966.54
2018-12-03T02:42:51.911Z,966.51
2018-12-03T02:43:51.849Z,966.52
2018-12-03T02:44:51.755Z,966.47
2018-12-03T02:45:51.685Z,966.47
2018-12-03T02:46:51.629Z,966.48
2018-12-03T02:47:51.531Z,966.52
2018-12-03T02:48:51.449Z,966.50
2018-12-03T02:49:51.409Z,966.45
2018-12-03T02:50:51.290Z,966.45
2018-12-03T02:51:51.220Z,966.49
2018-12-03T02:52:51.130Z,966.56
2018-12-03T02:53:51.072Z,966.58
2018-12-03T02:54:50.976Z,966.53
2018-12-03T02:55:50.904Z,966.51
2018-12-03T02:56:50.815Z,966.54
2018-12-03T02:57:50.746Z,966.53
2018-12-03T02:58:50.663Z,966.54
2018-12-03T02:59:50.589Z,966.55
2018-12-03T03:00:50.503Z,966.60
2018-12-03T03:01:50.434Z,966.69
2018-12-03T03:02:50.348Z,966.73
2018-12-03T03:03:51.284Z,966.72
2018-12-03T03:04:50.193Z,966.74
2018-12-03T03:05:50.124Z,966.79
2018-12-03T03:06:50.037Z,966.77
2018-12-03T03:07:49.965Z,966.76
2018-12-03T03:08:49.879Z,966.72
2018-12-03T03:09:49.824Z,966.89
2018-12-03T03:10:49.729Z,966.85
2018-12-03T03:11:49.653Z,966.84
2018-12-03T03:12:49.568Z,966.94
2018-12-03T03:13:49.496Z,966.89
2018-12-03T03:14:49.407Z,966.85
2018-12-03T03:15:49.340Z,966.79
2018-12-03T03:16:49.260Z,966.78
2018-12-03T03:17:49.186Z,966.65
2018-12-03T03:18:49.101Z,966.76
2018-12-03T03:19:49.028Z,966.62
2018-12-03T03:20:48.942Z,966.63
2018-12-03T03:21:48.872Z,966.59
2018-12-03T03:22:48.779Z,966.55
2018-12-03T03:23:48.713Z,966.57
2018-12-03T03:24:48.627Z,966.59
2018-12-03T03:25:48.555Z,966.55
2018-12-03T03:26:48.472Z,966.60
2018-12-03T03:27:48.406Z,966.56
2018-12-03T03:28:48.311Z,966.54
2018-12-03T03:29:48.249Z,966.52
2018-12-03T03:30:48.159Z,966.51
2018-12-03T03:31:48.088Z,966.46
2018-12-03T03:32:48.044Z,966.49
2018-12-03T03:33:47.931Z,966.43
2018-12-03T03:34:47.849Z,966.48
2018-12-03T03:35:47.774Z,966.46
2018-12-03T03:36:47.691Z,966.49
2018-12-03T03:37:47.617Z,966.53
2018-12-03T03:38:47.537Z,966.54
2018-12-03T03:39:47.459Z,966.61
2018-12-03T03:40:47.377Z,966.63
2018-12-03T03:41:47.306Z,966.62
2018-12-03T03:42:47.223Z,966.61
2018-12-03T03:43:47.151Z,966.56
2018-12-03T03:44:47.065Z,966.49
2018-12-03T03:45:46.994Z,966.44
2018-12-03T03:46:46.910Z,966.45
2018-12-03T03:47:46.839Z,966.44
2018-12-03T03:48:46.755Z,966.40
2018-12-03T03:49:47.682Z,966.38
2018-12-03T03:50:46.604Z,966.43
2018-12-03T03:51:46.524Z,966.46
2018-12-03T03:52:46.438Z,966.47
2018-12-03T03:53:46.368Z,966.43
2018-12-03T03:54:46.285Z,966.44
2018-12-03T03:55:46.216Z,966.46
2018-12-03T03:56:46.127Z,966.49
2018-12-03T03:57:46.059Z,966.47
2018-12-03T03:58:45.970Z,966.53
2018-12-03T03:59:45.897Z,966.56
2018-12-03T04:00:45.862Z,966.54
2018-12-03T04:01:45.760Z,966.60
2018-12-03T04:02:45.656Z,966.60
2018-12-03T04:03:45.592Z,966.64
2018-12-03T04:04:45.499Z,966.69
2018-12-03T04:05:45.431Z,966.67
2018-12-03T04:06:45.345Z,966.72
2018-12-03T04:07:45.271Z,966.66
2018-12-03T04:08:45.188Z,966.62
2018-12-03T04:09:45.120Z,966.66
2018-12-03T04:10:45.030Z,966.62
2018-12-03T04:11:44.964Z,966.66
2018-12-03T04:12:44.878Z,966.71
2018-12-03T04:13:44.807Z,966.67
2018-12-03T04:14:44.730Z,966.66
2018-12-03T04:15:44.652Z,966.61
2018-12-03T04:16:44.566Z,966.69
2018-12-03T04:17:44.490Z,966.69
2018-12-03T04:18:44.443Z,966.70
2018-12-03T04:19:44.336Z,966.63
2018-12-03T04:20:44.253Z,966.69
2018-12-03T04:21:45.117Z,966.65
2018-12-03T04:22:44.102Z,966.69
2018-12-03T04:23:44.025Z,966.65
2018-12-03T04:24:43.939Z,966.65
2018-12-03T04:25:43.873Z,966.63
2018-12-03T04:26:43.783Z,966.63
2018-12-03T04:27:43.736Z,966.62
2018-12-03T04:28:43.626Z,966.64
2018-12-03T04:29:43.561Z,966.57
2018-12-03T04:30:43.471Z,966.60
2018-12-03T04:31:43.399Z,966.60
2018-12-03T04:32:43.313Z,966.73
2018-12-03T04:33:43.243Z,966.60
2018-12-03T04:34:43.159Z,966.54
2018-12-03T04:35:44.141Z,966.55
2018-12-03T04:36:43.002Z,966.52
2018-12-03T04:37:42.932Z,966.53
2018-12-03T04:38:42.846Z,966.45
2018-12-03T04:39:42.776Z,966.36
2018-12-03T04:40:42.689Z,966.42
2018-12-03T04:41:42.620Z,966.41
2018-12-03T04:42:42.532Z,966.56
2018-12-03T04:43:42.465Z,966.55
2018-12-03T04:44:42.381Z,966.52
2018-12-03T04:45:42.307Z,966.49
2018-12-03T04:46:42.230Z,966.43
2018-12-03T04:47:42.154Z,966.50
2018-12-03T04:48:42.067Z,966.47
2018-12-03T04:49:41.994Z,966.46
2018-12-03T04:50:41.911Z,966.50
2018-12-03T04:51:41.839Z,966.48
2018-12-03T04:52:41.754Z,966.46
2018-12-03T04:53:41.684Z,966.37
2018-12-03T04:54:41.597Z,966.46
2018-12-03T04:55:41.531Z,966.48
2018-12-03T04:56:41.452Z,966.50
2018-12-03T04:57:41.372Z,966.48
2018-12-03T04:58:41.287Z,966.47
2018-12-03T04:59:41.214Z,966.49
2018-12-03T05:00:41.131Z,966.54
2018-12-03T05:01:41.060Z,966.45
2018-12-03T05:02:40.977Z,966.46
2018-12-03T05:03:40.907Z,966.52
2018-12-03T05:04:40.818Z,966.57
2018-12-03T05:05:40.746Z,966.60
2018-12-03T05:06:40.661Z,966.67
2018-12-03T05:07:40.592Z,966.73
2018-12-03T05:08:40.512Z,966.77
2018-12-03T05:09:41.435Z,966.71
2018-12-03T05:10:40.349Z,966.64
2018-12-03T05:11:40.280Z,966.66
2018-12-03T05:12:40.195Z,966.55
2018-12-03T05:13:40.118Z,966.57
2018-12-03T05:14:40.038Z,966.61
2018-12-03T05:15:40.020Z,966.67
2018-12-03T05:16:39.884Z,966.71
2018-12-03T05:17:39.815Z,966.76
2018-12-03T05:18:39.730Z,966.73
2018-12-03T05:19:39.764Z,966.70
2018-12-03T05:20:39.566Z,966.72
2018-12-03T05:21:39.559Z,966.70
2018-12-03T05:22:39.411Z,966.76
2018-12-03T05:23:39.367Z,966.75
2018-12-03T05:24:39.256Z,966.79
2018-12-03T05:25:39.279Z,966.80
2018-12-03T05:26:39.103Z,966.80
2018-12-03T05:27:39.087Z,966.85
2018-12-03T05:28:38.944Z,966.79
2018-12-03T05:29:38.899Z,966.81
2018-12-03T05:30:38.794Z,966.82
2018-12-03T05:31:38.806Z,966.77
2018-12-03T05:32:38.636Z,966.78
2018-12-03T05:33:38.618Z,966.80
2018-12-03T05:34:38.479Z,966.83
2018-12-03T05:35:38.400Z,966.86
2018-12-03T05:36:38.320Z,966.83
2018-12-03T05:37:38.332Z,966.82
2018-12-03T05:38:38.169Z,966.85
2018-12-03T05:39:38.142Z,966.86
2018-12-03T05:40:38.006Z,966.83
2018-12-03T05:41:37.934Z,966.87
2018-12-03T05:42:37.852Z,966.82
2018-12-03T05:43:37.860Z,966.84
2018-12-03T05:44:37.694Z,966.92
2018-12-03T05:45:37.670Z,966.89
2018-12-03T05:46:37.540Z,966.90
2018-12-03T05:47:37.476Z,966.91
2018-12-03T05:48:37.382Z,966.91
2018-12-03T05:49:37.388Z,966.86
2018-12-03T05:50:37.256Z,966.87
2018-12-03T05:51:37.195Z,966.86
2018-12-03T05:52:37.071Z,966.84
2018-12-03T05:53:36.993Z,966.82
2018-12-03T05:54:37.012Z,966.85
2018-12-03T05:55:36.839Z,966.80
2018-12-03T05:56:36.818Z,966.80
2018-12-03T05:57:36.680Z,966.83
2018-12-03T05:58:36.632Z,966.84
2018-12-03T05:59:36.533Z,966.87
2018-12-03T06:00:36.542Z,966.87
2018-12-03T06:01:36.374Z,966.87
2018-12-03T06:02:36.356Z,966.86
2018-12-03T06:03:36.215Z,966.88
2018-12-03T06:04:36.159Z,966.91
2018-12-03T06:05:36.055Z,966.94
2018-12-03T06:06:36.065Z,966.92
2018-12-03T06:07:35.906Z,966.92
2018-12-03T06:08:35.874Z,966.90
2018-12-03T06:09:35.742Z,966.88
2018-12-03T06:10:35.686Z,966.88
2018-12-03T06:11:35.589Z,966.88
2018-12-03T06:12:35.596Z,966.88
2018-12-03T06:13:35.432Z,966.86
2018-12-03T06:14:35.360Z,966.88
2018-12-03T06:15:35.275Z,966.86
2018-12-03T06:16:35.225Z,966.90
2018-12-03T06:17:35.115Z,966.89
2018-12-03T06:18:35.047Z,966.86
2018-12-03T06:19:34.962Z,966.89
2018-12-03T06:20:34.890Z,966.82
2018-12-03T06:21:34.828Z,966.91
2018-12-03T06:22:34.745Z,966.87
2018-12-03T06:23:34.654Z,966.86
2018-12-03T06:24:34.580Z,966.84
2018-12-03T06:25:34.494Z,966.91
2018-12-03T06:26:34.428Z,966.87
2018-12-03T06:27:34.338Z,966.90
2018-12-03T06:28:34.267Z,966.96
2018-12-03T06:29:34.186Z,966.98
2018-12-03T06:30:34.117Z,967.04
2018-12-03T06:31:34.022Z,967.01
2018-12-03T06:32:33.960Z,967.04
2018-12-03T06:33:33.867Z,967.04
2018-12-03T06:34:33.799Z,967.05
2018-12-03T06:35:33.713Z,967.10
2018-12-03T06:36:33.643Z,967.08
2018-12-03T06:37:33.563Z,967.11
2018-12-03T06:38:33.489Z,967.12
2018-12-03T06:39:33.407Z,967.21
2018-12-03T06:40:33.329Z,967.19
2018-12-03T06:41:33.245Z,967.27
2018-12-03T06:42:33.179Z,967.22
2018-12-03T06:43:33.142Z,967.20
2018-12-03T06:44:33.013Z,967.21
2018-12-03T06:45:32.975Z,967.19
2018-12-03T06:46:32.852Z,967.20
2018-12-03T06:47:32.863Z,967.22
2018-12-03T06:48:32.697Z,967.30
2018-12-03T06:49:32.667Z,967.32
2018-12-03T06:50:32.544Z,967.42
2018-12-03T06:51:32.586Z,967.43
2018-12-03T06:52:32.496Z,967.43
2018-12-03T06:53:32.318Z,967.38
2018-12-03T06:54:32.230Z,967.34
2018-12-03T06:55:32.195Z,967.34
2018-12-03T06:56:32.074Z,967.35
2018-12-03T06:57:32.005Z,967.32
2018-12-03T06:58:31.915Z,967.39
2018-12-03T06:59:31.914Z,967.45
2018-12-03T07:00:31.761Z,967.41
2018-12-03T07:01:31.689Z,967.41
2018-12-03T07:02:31.605Z,967.43
2018-12-03T07:03:31.633Z,967.46
2018-12-03T07:04:31.449Z,967.54
2018-12-03T07:05:31.442Z,967.59
2018-12-03T07:06:31.293Z,967.72
2018-12-03T07:07:31.246Z,967.76
2018-12-03T07:08:31.138Z,967.73
2018-12-03T07:09:31.161Z,967.64
2018-12-03T07:10:30.983Z,967.72
2018-12-03T07:11:30.971Z,967.65
2018-12-03T07:12:30.823Z,967.62
2018-12-03T07:13:30.776Z,967.41
2018-12-03T07:14:30.670Z,967.45
2018-12-03T07:15:30.691Z,967.40
2018-12-03T07:16:30.511Z,967.28
2018-12-03T07:17:30.500Z,967.32
2018-12-03T07:18:30.378Z,967.24
2018-12-03T07:19:30.304Z,967.18
2018-12-03T07:20:30.195Z,967.11
2018-12-03T07:21:30.252Z,967.13
2018-12-03T07:22:30.049Z,967.06
2018-12-03T07:23:30.032Z,967.06
2018-12-03T07:24:29.889Z,967.13
2018-12-03T07:25:29.834Z,967.17
2018-12-03T07:26:29.733Z,967.24
2018-12-03T07:27:29.747Z,967.26
2018-12-03T07:28:29.575Z,967.33
2018-12-03T07:29:29.549Z,967.34
2018-12-03T07:30:29.429Z,967.39
2018-12-03T07:31:29.363Z,967.45
2018-12-03T07:32:29.266Z,967.40
2018-12-03T07:33:29.279Z,967.49
2018-12-03T07:34:29.109Z,967.50
2018-12-03T07:35:29.083Z,967.50
2018-12-03T07:36:28.961Z,967.49
2018-12-03T07:37:28.891Z,967.47
2018-12-03T07:38:28.798Z,967.57
2018-12-03T07:39:29.826Z,967.64
2018-12-03T07:40:28.639Z,967.63
2018-12-03T07:41:28.609Z,967.74
2018-12-03T07:42:28.482Z,967.76
2018-12-03T07:43:28.519Z,967.73
2018-12-03T07:44:28.327Z,967.72
2018-12-03T07:45:30.298Z,967.73
2018-12-03T07:46:28.171Z,967.79
2018-12-03T07:47:28.168Z,967.83
2018-12-03T07:48:28.016Z,967.82
2018-12-03T07:49:28.048Z,967.86
2018-12-03T07:50:27.859Z,967.87
2018-12-03T07:51:27.859Z,967.88
2018-12-03T07:52:27.705Z,967.92
2018-12-03T07:53:27.667Z,967.89
2018-12-03T07:54:27.546Z,967.99
2018-12-03T07:55:27.595Z,968.07
2018-12-03T07:56:27.398Z,968.19
2018-12-03T07:57:27.389Z,968.21
2018-12-03T07:58:27.241Z,968.15
2018-12-03T07:59:27.194Z,968.12
2018-12-03T08:00:27.079Z,968.09
2018-12-03T08:01:27.102Z,968.03
2018-12-03T08:02:26.927Z,968.03
2018-12-03T08:03:26.913Z,968.07
2018-12-03T08:04:26.791Z,967.97
2018-12-03T08:05:26.726Z,968.04
2018-12-03T08:06:26.613Z,968.03
2018-12-03T08:07:26.547Z,968.04
2018-12-03T08:08:26.452Z,968.03
2018-12-03T08:09:26.441Z,967.96
2018-12-03T08:10:26.309Z,967.97
2018-12-03T08:11:26.248Z,967.97
2018-12-03T08:12:26.149Z,967.93
2018-12-03T08:13:26.158Z,967.93
2018-12-03T08:14:25.988Z,967.96
2018-12-03T08:15:25.969Z,967.95
2018-12-03T08:16:25.856Z,967.96
2018-12-03T08:17:25.771Z,967.97
2018-12-03T08:18:25.680Z,968.02
2018-12-03T08:19:25.685Z,967.99
2018-12-03T08:20:25.518Z,967.96
2018-12-03T08:21:25.495Z,967.90
2018-12-03T08:22:25.371Z,967.87
2018-12-03T08:23:25.302Z,967.84
2018-12-03T08:24:25.212Z,967.82
2018-12-03T08:25:25.217Z,967.78
2018-12-03T08:26:25.053Z,967.73
2018-12-03T08:27:25.021Z,967.77
2018-12-03T08:28:24.898Z,967.84
2018-12-03T08:29:24.933Z,967.88
2018-12-03T08:30:24.749Z,967.86
2018-12-03T08:31:24.743Z,967.90
2018-12-03T08:32:24.582Z,967.93
2018-12-03T08:33:24.548Z,967.94
2018-12-03T08:34:24.435Z,967.96
2018-12-03T08:35:24.465Z,967.98
2018-12-03T08:36:24.274Z,968.01
2018-12-03T08:37:24.276Z,967.98
2018-12-03T08:38:24.119Z,967.94
2018-12-03T08:39:24.078Z,967.97
2018-12-03T08:40:23.956Z,967.98
2018-12-03T08:41:23.997Z,968.00
2018-12-03T08:42:23.804Z,968.00
2018-12-03T08:43:23.799Z,967.99
2018-12-03T08:44:23.646Z,967.99
2018-12-03T08:45:23.601Z,968.00
2018-12-03T08:46:23.496Z,968.01
2018-12-03T08:47:23.517Z,967.98
2018-12-03T08:48:23.331Z,968.01
2018-12-03T08:49:23.324Z,967.94
2018-12-03T08:50:23.191Z,967.96
2018-12-03T08:51:23.131Z,968.03
2018-12-03T08:52:23.022Z,968.14
2018-12-03T08:53:23.046Z,968.23
2018-12-03T08:54:22.869Z,968.28
2018-12-03T08:55:22.852Z,968.32
2018-12-03T08:56:22.713Z,968.31
2018-12-03T08:57:22.663Z,968.27
2018-12-03T08:58:22.563Z,968.15
2018-12-03T09:00:55.382Z,968.21
2018-12-03T09:01:55.352Z,968.21
2018-12-03T09:02:55.210Z,968.20
2018-12-03T09:03:55.160Z,968.22
2018-12-03T09:04:55.055Z,968.27
2018-12-03T09:05:56.268Z,968.30
2018-12-03T09:06:54.898Z,968.28
2018-12-03T09:07:54.884Z,968.29
2018-12-03T09:08:54.740Z,968.25
2018-12-03T09:09:54.691Z,968.32
2018-12-03T09:10:54.588Z,968.28
2018-12-03T09:11:54.600Z,968.24
2018-12-03T09:12:54.430Z,968.20
2018-12-03T09:13:54.411Z,968.20
2018-12-03T09:14:54.274Z,968.19
2018-12-03T09:15:54.215Z,968.28
2018-12-03T09:16:54.151Z,968.28
2018-12-03T09:17:54.127Z,968.23
2018-12-03T09:18:53.965Z,968.30
2018-12-03T09:19:53.935Z,968.27
2018-12-03T09:20:53.809Z,968.26
2018-12-03T09:21:53.848Z,968.22
2018-12-03T09:22:53.652Z,968.22
2018-12-03T09:23:53.655Z,968.27
2018-12-03T09:24:53.499Z,968.26
2018-12-03T09:25:53.464Z,968.28
2018-12-03T09:26:53.343Z,968.25
2018-12-03T09:27:53.376Z,968.24
2018-12-03T09:28:53.190Z,968.23
2018-12-03T09:29:53.183Z,968.27
2018-12-03T09:30:53.031Z,968.35
2018-12-03T09:31:52.992Z,968.41
2018-12-03T09:32:52.870Z,968.39
2018-12-03T09:33:52.901Z,968.40
2018-12-03T09:34:52.719Z,968.48
2018-12-03T09:35:52.712Z,968.56
2018-12-03T09:36:52.562Z,968.53
2018-12-03T09:37:52.519Z,968.45
2018-12-03T09:38:52.407Z,968.36
2018-12-03T09:39:52.431Z,968.28
2018-12-03T09:40:52.252Z,968.29
2018-12-03T09:41:52.240Z,968.34
2018-12-03T09:42:52.096Z,968.37
2018-12-03T09:43:52.047Z,968.28
2018-12-03T09:44:51.947Z,968.21
2018-12-03T09:45:51.958Z,968.27
2018-12-03T09:46:51.785Z,968.23
2018-12-03T09:47:54.452Z,968.35
2018-12-03T09:48:51.633Z,968.39
2018-12-03T09:49:51.583Z,968.38
2018-12-03T09:50:51.473Z,968.39
2018-12-03T09:51:51.488Z,968.33
2018-12-03T09:52:51.320Z,968.29
2018-12-03T09:53:51.292Z,968.26
2018-12-03T09:54:51.163Z,968.10
2018-12-03T09:55:51.103Z,968.17
2018-12-03T09:56:51.005Z,968.27
2018-12-03T09:57:51.010Z,968.29
2018-12-03T09:58:50.855Z,968.26
2018-12-03T09:59:50.843Z,968.22
2018-12-03T10:00:50.699Z,968.23
2018-12-03T10:01:50.734Z,968.19
2018-12-03T10:02:50.544Z,968.08
2018-12-03T10:03:50.547Z,968.11
2018-12-03T10:04:50.386Z,968.05
2018-12-03T10:05:50.349Z,968.02
2018-12-03T10:06:50.240Z,968.04
2018-12-03T10:07:50.256Z,968.01
2018-12-03T10:08:50.074Z,967.97
2018-12-03T10:09:50.071Z,968.05
2018-12-03T10:10:49.917Z,968.01
2018-12-03T10:11:49.877Z,967.99
2018-12-03T10:12:49.760Z,968.00
2018-12-03T10:13:49.789Z,968.03
2018-12-03T10:14:49.607Z,967.99
2018-12-03T10:15:49.594Z,968.00
2018-12-03T10:16:49.456Z,967.99
2018-12-03T10:17:49.400Z,967.97
2018-12-03T10:18:49.298Z,967.93
2018-12-03T10:19:49.322Z,967.88
2018-12-03T10:20:49.167Z,967.87
2018-12-03T10:21:49.153Z,967.82
2018-12-03T10:22:48.986Z,967.83
2018-12-03T10:23:48.949Z,967.85
2018-12-03T10:24:48.832Z,967.93
2018-12-03T10:25:48.845Z,967.89
2018-12-03T10:26:48.674Z,967.87
2018-12-03T10:27:48.651Z,967.80
2018-12-03T10:28:48.521Z,967.73
2018-12-03T10:29:48.462Z,967.73
2018-12-03T10:30:48.369Z,967.69
2018-12-03T10:31:48.370Z,967.65
2018-12-03T10:32:48.208Z,967.70
2018-12-03T10:33:48.179Z,967.65
2018-12-03T10:34:48.058Z,967.68
2018-12-03T10:35:48.103Z,967.59
2018-12-03T10:36:47.899Z,967.62
2018-12-03T10:37:47.901Z,967.62
2018-12-03T10:38:47.744Z,967.60
2018-12-03T10:39:47.707Z,967.64
2018-12-03T10:40:47.587Z,967.56
2018-12-03T10:41:47.617Z,967.59
2018-12-03T10:42:47.432Z,967.55
2018-12-03T10:43:47.429Z,967.52
2018-12-03T10:44:47.277Z,967.46
2018-12-03T10:45:47.235Z,967.46
2018-12-03T10:46:47.121Z,967.42
2018-12-03T10:47:47.143Z,967.42
2018-12-03T10:48:46.970Z,967.38
2018-12-03T10:49:46.960Z,967.41
2018-12-03T10:50:46.819Z,967.38
2018-12-03T10:51:46.762Z,967.28
2018-12-03T10:52:46.660Z,967.34
2018-12-03T10:53:46.676Z,967.25
2018-12-03T10:54:46.504Z,967.23
2018-12-03T10:55:46.483Z,967.34
2018-12-03T10:56:46.351Z,967.31
2018-12-03T10:57:47.316Z,967.29
2018-12-03T10:58:46.235Z,967.25
2018-12-03T10:59:46.201Z,967.26
2018-12-03T11:00:46.038Z,967.28
2018-12-03T11:01:46.010Z,967.24
2018-12-03T11:02:45.884Z,967.25
2018-12-03T11:03:45.920Z,967.22
2018-12-03T11:04:45.729Z,967.25
2018-12-03T11:05:45.726Z,967.27
2018-12-03T11:06:45.575Z,967.32
2018-12-03T11:07:45.538Z,967.26
2018-12-03T11:08:45.422Z,967.26
2018-12-03T11:09:45.450Z,967.26
2018-12-03T11:10:45.270Z,967.26
2018-12-03T11:11:46.306Z,967.25
2018-12-03T11:12:45.122Z,967.32
2018-12-03T11:13:45.065Z,967.30
2018-12-03T11:14:44.954Z,967.30
2018-12-03T11:15:44.977Z,967.26
2018-12-03T11:16:44.799Z,967.28
2018-12-03T11:17:44.782Z,967.32
2018-12-03T11:18:44.648Z,967.31
2018-12-03T11:19:44.593Z,967.38
2018-12-03T11:20:44.494Z,967.34
2018-12-03T11:21:44.503Z,967.29
2018-12-03T11:22:44.335Z,967.30
2018-12-03T11:23:44.316Z,967.22
2018-12-03T11:24:44.184Z,967.26
2018-12-03T11:25:44.221Z,967.26
2018-12-03T11:26:44.026Z,967.23
2018-12-03T11:27:44.032Z,967.20
2018-12-03T11:28:43.877Z,967.17
2018-12-03T11:29:43.839Z,967.16
2018-12-03T11:30:43.716Z,967.17
2018-12-03T11:31:43.751Z,967.17
2018-12-03T11:32:43.564Z,967.12
2018-12-03T11:33:43.563Z,967.11
2018-12-03T11:34:43.412Z,967.09
2018-12-03T11:35:43.364Z,967.11
2018-12-03T11:36:43.259Z,967.09
2018-12-03T11:37:43.279Z,967.06
2018-12-03T11:38:43.095Z,967.06
2018-12-03T11:39:43.085Z,967.06
2018-12-03T11:40:42.943Z,967.09
2018-12-03T11:41:42.896Z,967.07
2018-12-03T11:42:42.795Z,967.06
2018-12-03T11:43:42.806Z,967.06
2018-12-03T11:44:42.645Z,967.01
2018-12-03T11:45:42.613Z,966.97
2018-12-03T11:46:42.484Z,966.96
2018-12-03T11:47:42.422Z,966.94
2018-12-03T11:48:42.323Z,966.95
2018-12-03T11:49:42.351Z,966.92
2018-12-03T11:50:42.176Z,966.91
2018-12-03T11:51:42.146Z,966.91
2018-12-03T11:52:42.014Z,966.96
2018-12-03T11:53:42.053Z,966.83
2018-12-03T11:54:41.860Z,966.88
2018-12-03T11:55:41.862Z,966.97
2018-12-03T11:56:41.704Z,966.89
2018-12-03T11:57:41.682Z,966.97
2018-12-03T11:58:41.552Z,966.99
2018-12-03T11:59:41.581Z,966.95
2018-12-03T12:00:41.401Z,967.00
2018-12-03T12:01:41.399Z,966.93
2018-12-03T12:02:41.251Z,966.96
2018-12-03T12:03:42.818Z,966.99
2018-12-03T12:04:41.088Z,967.01
2018-12-03T12:05:41.110Z,967.05
2018-12-03T12:06:40.931Z,967.12
2018-12-03T12:07:42.431Z,967.07
2018-12-03T12:08:40.778Z,967.10
2018-12-03T12:09:40.729Z,967.11
2018-12-03T12:10:40.629Z,967.22
2018-12-03T12:11:40.636Z,967.12
2018-12-03T12:12:40.470Z,967.17
2018-12-03T12:13:40.446Z,967.21
2018-12-03T12:14:40.318Z,967.19
2018-12-03T12:15:40.254Z,967.14
2018-12-03T12:16:40.156Z,967.21
2018-12-03T12:17:40.163Z,967.17
2018-12-03T12:18:40.011Z,967.19
2018-12-03T12:19:39.975Z,967.16
2018-12-03T12:20:39.842Z,967.18
2018-12-03T12:21:39.883Z,967.10
2018-12-03T12:22:39.692Z,967.11
2018-12-03T12:23:39.694Z,967.09
2018-12-03T12:24:39.545Z,967.04
2018-12-03T12:25:39.464Z,966.98
2018-12-03T12:26:39.379Z,966.95
2018-12-03T12:27:39.413Z,966.92
2018-12-03T12:28:39.222Z,966.91